sensor_id;sensor_type;location;lat;lon;timestamp;pressure;altitude;pressure_sealevel;temperature;humidity
19783;BME280;10051;40.294;-3.754;2023-07-08T00:00:20;94079.84;;;28.16;24.95
19783;BME280;10051;40.294;-3.754;2023-07-08T00:02:46;94104.53;;;28.25;24.86
19783;BME280;10051;40.294;-3.754;2023-07-08T00:05:14;94096.41;;;28.22;24.83
19783;BME280;10051;40.294;-3.754;2023-07-08T00:07:40;94103.38;;;28.19;24.88
19783;BME280;10051;40.294;-3.754;2023-07-08T00:10:17;94091.78;;;28.18;25.12
19783;BME280;10051;40.294;-3.754;2023-07-08T00:12:44;94081.41;;;28.06;24.82
19783;BME280;10051;40.294;-3.754;2023-07-08T00:15:10;94097.59;;;28.17;25.20
19783;BME280;10051;40.294;-3.754;2023-07-08T00:17:37;94093.00;;;27.99;24.86
19783;BME280;10051;40.294;-3.754;2023-07-08T00:20:39;94108.81;;;28.04;24.95
19783;BME280;10051;40.294;-3.754;2023-07-08T00:23:08;94110.75;;;28.00;25.25
19783;BME280;10051;40.294;-3.754;2023-07-08T00:25:34;94106.16;;;27.90;25.22
19783;BME280;10051;40.294;-3.754;2023-07-08T00:28:00;94111.56;;;28.01;25.00
19783;BME280;10051;40.294;-3.754;2023-07-08T00:30:30;94114.66;;;27.92;25.09
19783;BME280;10051;40.294;-3.754;2023-07-08T00:32:58;94109.63;;;27.98;24.99
19783;BME280;10051;40.294;-3.754;2023-07-08T00:37:58;94117.00;;;27.86;25.64
19783;BME280;10051;40.294;-3.754;2023-07-08T00:40:31;94127.00;;;27.93;25.19
19783;BME280;10051;40.294;-3.754;2023-07-08T00:43:03;94101.25;;;27.63;25.56
19783;BME280;10051;40.294;-3.754;2023-07-08T00:45:44;94134.78;;;27.77;25.48
19783;BME280;10051;40.294;-3.754;2023-07-08T00:48:22;94135.19;;;27.71;25.84
19783;BME280;10051;40.294;-3.754;2023-07-08T00:50:49;94125.16;;;27.68;25.61
19783;BME280;10051;40.294;-3.754;2023-07-08T00:53:36;94126.34;;;27.53;25.70
19783;BME280;10051;40.294;-3.754;2023-07-08T00:56:06;94143.28;;;27.68;26.05
19783;BME280;10051;40.294;-3.754;2023-07-08T00:58:46;94102.41;;;27.37;26.24
19783;BME280;10051;40.294;-3.754;2023-07-08T01:01:12;94083.16;;;27.27;25.75
19783;BME280;10051;40.294;-3.754;2023-07-08T01:03:48;94093.19;;;27.27;26.34
19783;BME280;10051;40.294;-3.754;2023-07-08T01:06:19;94079.69;;;27.23;26.25
19783;BME280;10051;40.294;-3.754;2023-07-08T01:08:47;94116.28;;;27.42;26.03
19783;BME280;10051;40.294;-3.754;2023-07-08T01:11:18;94083.94;;;27.13;26.35
19783;BME280;10051;40.294;-3.754;2023-07-08T01:13:47;94130.16;;;27.44;26.16
19783;BME280;10051;40.294;-3.754;2023-07-08T01:16:16;94139.44;;;27.33;26.43
19783;BME280;10051;40.294;-3.754;2023-07-08T01:18:42;94073.94;;;26.81;26.54
19783;BME280;10051;40.294;-3.754;2023-07-08T01:21:39;94140.22;;;27.19;26.78
19783;BME280;10051;40.294;-3.754;2023-07-08T01:24:10;94139.06;;;27.01;27.15
19783;BME280;10051;40.294;-3.754;2023-07-08T01:26:40;94131.34;;;26.96;27.23
19783;BME280;10051;40.294;-3.754;2023-07-08T01:29:07;94095.53;;;26.81;26.76
19783;BME280;10051;40.294;-3.754;2023-07-08T01:31:35;94130.19;;;26.90;27.30
19783;BME280;10051;40.294;-3.754;2023-07-08T01:34:01;94106.66;;;26.80;27.14
19783;BME280;10051;40.294;-3.754;2023-07-08T01:36:31;94098.94;;;26.60;27.37
19783;BME280;10051;40.294;-3.754;2023-07-08T01:38:59;94151.00;;;26.93;27.45
19783;BME280;10051;40.294;-3.754;2023-07-08T01:41:25;94154.09;;;26.95;27.29
19783;BME280;10051;40.294;-3.754;2023-07-08T01:43:50;94133.22;;;26.74;27.70
19783;BME280;10051;40.294;-3.754;2023-07-08T01:46:24;94094.69;;;26.63;27.59
19783;BME280;10051;40.294;-3.754;2023-07-08T01:48:57;94142.50;;;26.84;27.49
19783;BME280;10051;40.294;-3.754;2023-07-08T01:51:24;94163.34;;;26.94;27.73
19783;BME280;10051;40.294;-3.754;2023-07-08T01:53:51;94118.59;;;26.64;27.56
19783;BME280;10051;40.294;-3.754;2023-07-08T01:56:16;94145.94;;;26.81;27.81
19783;BME280;10051;40.294;-3.754;2023-07-08T01:58:48;94137.84;;;26.81;27.97
19783;BME280;10051;40.294;-3.754;2023-07-08T02:01:13;94162.94;;;26.85;27.96
19783;BME280;10051;40.294;-3.754;2023-07-08T02:03:39;94164.44;;;26.75;28.31
19783;BME280;10051;40.294;-3.754;2023-07-08T02:06:05;94167.13;;;26.79;28.21
19783;BME280;10051;40.294;-3.754;2023-07-08T02:08:30;94161.00;;;26.82;28.35
19783;BME280;10051;40.294;-3.754;2023-07-08T02:10:57;94170.97;;;26.78;28.14
19783;BME280;10051;40.294;-3.754;2023-07-08T02:13:23;94155.56;;;26.75;28.23
19783;BME280;10051;40.294;-3.754;2023-07-08T02:15:50;94166.78;;;26.84;28.43
19783;BME280;10051;40.294;-3.754;2023-07-08T02:18:16;94171.00;;;26.70;28.36
19783;BME280;10051;40.294;-3.754;2023-07-08T02:20:44;94022.00;;;25.52;29.02
19783;BME280;10051;40.294;-3.754;2023-07-08T02:23:10;94164.78;;;26.55;29.00
19783;BME280;10051;40.294;-3.754;2023-07-08T02:25:36;94163.28;;;26.65;28.99
19783;BME280;10051;40.294;-3.754;2023-07-08T02:28:02;94170.22;;;26.77;28.78
19783;BME280;10051;40.294;-3.754;2023-07-08T02:30:28;94169.06;;;26.67;28.99
19783;BME280;10051;40.294;-3.754;2023-07-08T02:32:53;94159.41;;;26.66;29.08
19783;BME280;10051;40.294;-3.754;2023-07-08T02:35:27;94153.63;;;26.61;29.12
19783;BME280;10051;40.294;-3.754;2023-07-08T02:37:54;94158.59;;;26.48;29.47
19783;BME280;10051;40.294;-3.754;2023-07-08T02:40:20;94108.38;;;26.07;29.74
19783;BME280;10051;40.294;-3.754;2023-07-08T02:42:46;94147.72;;;26.22;29.75
19783;BME280;10051;40.294;-3.754;2023-07-08T02:45:12;94161.59;;;26.21;30.28
19783;BME280;10051;40.294;-3.754;2023-07-08T02:47:38;94164.66;;;26.19;29.99
19783;BME280;10051;40.294;-3.754;2023-07-08T02:50:04;94168.16;;;26.27;29.92
19783;BME280;10051;40.294;-3.754;2023-07-08T02:52:30;94158.81;;;26.10;30.12
19783;BME280;10051;40.294;-3.754;2023-07-08T02:54:56;94128.34;;;25.91;30.25
19783;BME280;10051;40.294;-3.754;2023-07-08T02:57:21;94146.84;;;25.96;30.29
19783;BME280;10051;40.294;-3.754;2023-07-08T02:59:47;94127.94;;;25.93;30.35
19783;BME280;10051;40.294;-3.754;2023-07-08T03:02:13;94166.53;;;26.11;30.63
19783;BME280;10051;40.294;-3.754;2023-07-08T03:04:39;94161.19;;;26.22;30.09
19783;BME280;10051;40.294;-3.754;2023-07-08T03:07:06;94144.56;;;26.06;30.18
19783;BME280;10051;40.294;-3.754;2023-07-08T03:09:39;94137.66;;;26.08;30.57
19783;BME280;10051;40.294;-3.754;2023-07-08T03:12:06;94166.63;;;26.26;30.26
19783;BME280;10051;40.294;-3.754;2023-07-08T03:14:32;94164.66;;;26.16;30.65
19783;BME280;10051;40.294;-3.754;2023-07-08T03:16:58;94149.94;;;26.06;30.77
19783;BME280;10051;40.294;-3.754;2023-07-08T03:19:23;94140.66;;;25.96;30.73
19783;BME280;10051;40.294;-3.754;2023-07-08T03:21:49;94159.19;;;26.08;30.79
19783;BME280;10051;40.294;-3.754;2023-07-08T03:24:14;94168.41;;;26.00;30.75
19783;BME280;10051;40.294;-3.754;2023-07-08T03:26:44;94169.16;;;25.97;30.99
19783;BME280;10051;40.294;-3.754;2023-07-08T03:29:18;94140.97;;;25.83;30.91
19783;BME280;10051;40.294;-3.754;2023-07-08T03:31:44;94161.38;;;25.84;31.13
19783;BME280;10051;40.294;-3.754;2023-07-08T03:34:11;94179.16;;;26.00;30.86
19783;BME280;10051;40.294;-3.754;2023-07-08T03:36:43;94168.25;;;25.71;31.27
19783;BME280;10051;40.294;-3.754;2023-07-08T03:39:15;94178.25;;;25.74;31.20
19783;BME280;10051;40.294;-3.754;2023-07-08T03:41:40;94136.59;;;25.50;31.33
19783;BME280;10051;40.294;-3.754;2023-07-08T03:44:06;94189.13;;;25.92;30.92
19783;BME280;10051;40.294;-3.754;2023-07-08T03:46:32;94194.03;;;25.76;31.18
19783;BME280;10051;40.294;-3.754;2023-07-08T03:48:57;94185.91;;;25.65;31.49
19783;BME280;10051;40.294;-3.754;2023-07-08T03:51:26;94197.75;;;25.57;31.65
19783;BME280;10051;40.294;-3.754;2023-07-08T03:53:53;94171.81;;;25.34;31.86
19783;BME280;10051;40.294;-3.754;2023-07-08T03:56:18;94193.53;;;25.56;32.10
19783;BME280;10051;40.294;-3.754;2023-07-08T03:58:44;94164.38;;;25.16;32.29
19783;BME280;10051;40.294;-3.754;2023-07-08T04:01:20;94196.66;;;25.16;32.85
19783;BME280;10051;40.294;-3.754;2023-07-08T04:03:47;94193.69;;;25.29;32.81
19783;BME280;10051;40.294;-3.754;2023-07-08T04:06:13;94196.31;;;25.21;32.79
19783;BME280;10051;40.294;-3.754;2023-07-08T04:08:39;94186.28;;;25.18;32.67
19783;BME280;10051;40.294;-3.754;2023-07-08T04:11:05;94191.78;;;25.33;32.89
19783;BME280;10051;40.294;-3.754;2023-07-08T04:13:34;94203.72;;;25.35;32.91
19783;BME280;10051;40.294;-3.754;2023-07-08T04:16:02;94170.31;;;24.91;33.32
19783;BME280;10051;40.294;-3.754;2023-07-08T04:18:29;94173.78;;;24.95;33.28
19783;BME280;10051;40.294;-3.754;2023-07-08T04:20:55;94207.72;;;25.07;33.43
19783;BME280;10051;40.294;-3.754;2023-07-08T04:23:23;94178.03;;;24.97;33.55
19783;BME280;10051;40.294;-3.754;2023-07-08T04:25:50;94154.28;;;24.64;33.76
19783;BME280;10051;40.294;-3.754;2023-07-08T04:28:17;94196.81;;;24.89;33.93
19783;BME280;10051;40.294;-3.754;2023-07-08T04:30:43;94229.06;;;24.89;33.86
19783;BME280;10051;40.294;-3.754;2023-07-08T04:33:10;94172.47;;;24.41;34.71
19783;BME280;10051;40.294;-3.754;2023-07-08T04:35:37;94229.72;;;24.79;34.45
19783;BME280;10051;40.294;-3.754;2023-07-08T04:38:16;94178.56;;;24.38;34.99
19783;BME280;10051;40.294;-3.754;2023-07-08T04:40:45;94143.03;;;24.17;35.04
19783;BME280;10051;40.294;-3.754;2023-07-08T04:43:11;94209.63;;;24.69;34.61
19783;BME280;10051;40.294;-3.754;2023-07-08T04:45:38;94245.53;;;24.84;34.64
19783;BME280;10051;40.294;-3.754;2023-07-08T04:48:05;94225.50;;;24.78;34.52
19783;BME280;10051;40.294;-3.754;2023-07-08T04:50:34;94219.31;;;24.74;34.50
19783;BME280;10051;40.294;-3.754;2023-07-08T04:53:00;94257.50;;;24.90;34.56
19783;BME280;10051;40.294;-3.754;2023-07-08T04:55:30;94229.53;;;24.64;34.63
19783;BME280;10051;40.294;-3.754;2023-07-08T04:57:56;94199.97;;;24.30;34.98
19783;BME280;10051;40.294;-3.754;2023-07-08T05:00:22;94212.34;;;24.39;35.14
19783;BME280;10051;40.294;-3.754;2023-07-08T05:02:47;94140.97;;;23.76;35.26
19783;BME280;10051;40.294;-3.754;2023-07-08T05:05:13;94258.84;;;24.73;34.96
19783;BME280;10051;40.294;-3.754;2023-07-08T05:07:39;94189.88;;;24.20;35.27
19783;BME280;10051;40.294;-3.754;2023-07-08T05:10:05;94224.81;;;24.54;34.97
19783;BME280;10051;40.294;-3.754;2023-07-08T05:12:30;94132.28;;;23.87;34.66
19783;BME280;10051;40.294;-3.754;2023-07-08T05:14:56;94031.69;;;23.20;34.75
19783;BME280;10051;40.294;-3.754;2023-07-08T05:17:22;94214.63;;;24.37;35.11
19783;BME280;10051;40.294;-3.754;2023-07-08T05:19:47;94098.06;;;23.50;35.30
19783;BME280;10051;40.294;-3.754;2023-07-08T05:22:16;94145.91;;;23.74;35.34
19783;BME280;10051;40.294;-3.754;2023-07-08T05:24:43;94190.78;;;24.01;35.41
19783;BME280;10051;40.294;-3.754;2023-07-08T05:27:09;94166.03;;;23.88;35.27
19783;BME280;10051;40.294;-3.754;2023-07-08T05:29:34;94056.91;;;23.38;34.79
19783;BME280;10051;40.294;-3.754;2023-07-08T05:32:00;94234.50;;;24.62;34.13
19783;BME280;10051;40.294;-3.754;2023-07-08T05:34:26;94112.66;;;23.83;34.29
19783;BME280;10051;40.294;-3.754;2023-07-08T05:36:51;94072.38;;;23.49;34.40
19783;BME280;10051;40.294;-3.754;2023-07-08T05:39:17;94127.63;;;23.84;34.22
19783;BME280;10051;40.294;-3.754;2023-07-08T05:41:42;94216.34;;;24.52;34.07
19783;BME280;10051;40.294;-3.754;2023-07-08T05:44:08;94079.09;;;23.66;33.67
19783;BME280;10051;40.294;-3.754;2023-07-08T05:46:34;94146.78;;;24.81;32.66
19783;BME280;10051;40.294;-3.754;2023-07-08T05:48:59;94214.81;;;25.30;32.37
19783;BME280;10051;40.294;-3.754;2023-07-08T05:51:25;94215.50;;;25.20;32.67
19783;BME280;10051;40.294;-3.754;2023-07-08T05:53:50;94172.06;;;24.76;32.83
19783;BME280;10051;40.294;-3.754;2023-07-08T05:56:16;94284.69;;;25.61;32.79
19783;BME280;10051;40.294;-3.754;2023-07-08T05:58:45;94108.31;;;24.35;32.45
19783;BME280;10051;40.294;-3.754;2023-07-08T06:01:10;94289.00;;;25.69;32.52
19783;BME280;10051;40.294;-3.754;2023-07-08T06:03:37;94273.19;;;25.64;32.35
19783;BME280;10051;40.294;-3.754;2023-07-08T06:06:02;94292.50;;;25.77;32.42
19783;BME280;10051;40.294;-3.754;2023-07-08T06:08:31;94136.09;;;24.88;32.20
19783;BME280;10051;40.294;-3.754;2023-07-08T06:10:56;94129.94;;;24.88;31.83
19783;BME280;10051;40.294;-3.754;2023-07-08T06:13:22;94185.03;;;25.53;31.87
19783;BME280;10051;40.294;-3.754;2023-07-08T06:15:48;94235.28;;;25.91;31.67
19783;BME280;10051;40.294;-3.754;2023-07-08T06:18:13;94281.75;;;26.36;31.53
19783;BME280;10051;40.294;-3.754;2023-07-08T06:20:39;94201.41;;;25.86;31.26
19783;BME280;10051;40.294;-3.754;2023-07-08T06:23:05;94281.09;;;26.54;30.94
19783;BME280;10051;40.294;-3.754;2023-07-08T06:25:31;94278.81;;;26.63;30.66
19783;BME280;10051;40.294;-3.754;2023-07-08T06:27:57;94305.50;;;26.83;30.74
19783;BME280;10051;40.294;-3.754;2023-07-08T06:30:23;94137.88;;;25.78;31.04
19783;BME280;10051;40.294;-3.754;2023-07-08T06:32:49;94256.81;;;26.54;31.10
19783;BME280;10051;40.294;-3.754;2023-07-08T06:35:14;94192.66;;;26.04;31.27
19783;BME280;10051;40.294;-3.754;2023-07-08T06:37:40;94293.88;;;26.79;30.85
19783;BME280;10051;40.294;-3.754;2023-07-08T06:40:08;94321.31;;;26.88;31.02
19783;BME280;10051;40.294;-3.754;2023-07-08T06:42:33;94323.22;;;26.84;30.92
19783;BME280;10051;40.294;-3.754;2023-07-08T06:44:59;94297.34;;;26.76;30.99
19783;BME280;10051;40.294;-3.754;2023-07-08T06:47:25;94287.34;;;26.76;31.15
19783;BME280;10051;40.294;-3.754;2023-07-08T06:49:50;94295.13;;;26.89;30.77
19783;BME280;10051;40.294;-3.754;2023-07-08T06:52:16;94301.97;;;26.79;30.24
19783;BME280;10051;40.294;-3.754;2023-07-08T06:54:41;94290.38;;;26.67;30.21
19783;BME280;10051;40.294;-3.754;2023-07-08T06:57:07;94285.75;;;26.64;30.59
19783;BME280;10051;40.294;-3.754;2023-07-08T06:59:33;94335.94;;;26.87;30.16
19783;BME280;10051;40.294;-3.754;2023-07-08T07:01:59;94294.25;;;26.70;30.37
19783;BME280;10051;40.294;-3.754;2023-07-08T07:04:24;94334.84;;;27.06;30.96
19783;BME280;10051;40.294;-3.754;2023-07-08T07:06:50;94300.91;;;26.94;30.86
19783;BME280;10051;40.294;-3.754;2023-07-08T07:09:16;94334.53;;;27.15;31.19
19783;BME280;10051;40.294;-3.754;2023-07-08T07:11:41;94343.78;;;27.28;31.04
19783;BME280;10051;40.294;-3.754;2023-07-08T07:14:07;94344.22;;;27.34;30.87
19783;BME280;10051;40.294;-3.754;2023-07-08T07:16:32;94353.06;;;27.38;30.44
19783;BME280;10051;40.294;-3.754;2023-07-08T07:18:58;94307.13;;;27.20;30.71
19783;BME280;10051;40.294;-3.754;2023-07-08T07:21:27;94307.53;;;27.22;30.55
19783;BME280;10051;40.294;-3.754;2023-07-08T07:23:53;94313.72;;;27.30;30.50
19783;BME280;10051;40.294;-3.754;2023-07-08T07:26:18;94353.50;;;27.55;30.37
19783;BME280;10051;40.294;-3.754;2023-07-08T07:28:44;94323.75;;;27.33;30.12
19783;BME280;10051;40.294;-3.754;2023-07-08T07:31:10;94333.06;;;27.54;29.87
19783;BME280;10051;40.294;-3.754;2023-07-08T07:33:37;94346.97;;;27.67;30.14
19783;BME280;10051;40.294;-3.754;2023-07-08T07:36:02;94313.81;;;27.55;29.75
19783;BME280;10051;40.294;-3.754;2023-07-08T07:38:32;94303.78;;;27.59;30.09
19783;BME280;10051;40.294;-3.754;2023-07-08T07:40:58;94352.03;;;28.01;29.94
19783;BME280;10051;40.294;-3.754;2023-07-08T07:43:25;94325.38;;;27.81;29.65
19783;BME280;10051;40.294;-3.754;2023-07-08T07:45:52;94351.22;;;27.82;29.04
19783;BME280;10051;40.294;-3.754;2023-07-08T07:48:18;94355.47;;;27.83;29.18
19783;BME280;10051;40.294;-3.754;2023-07-08T07:50:48;94361.25;;;27.78;29.16
19783;BME280;10051;40.294;-3.754;2023-07-08T07:53:15;94360.09;;;27.79;29.71
19783;BME280;10051;40.294;-3.754;2023-07-08T07:55:41;94354.69;;;27.72;29.50
19783;BME280;10051;40.294;-3.754;2023-07-08T07:58:06;94346.22;;;27.73;29.22
19783;BME280;10051;40.294;-3.754;2023-07-08T08:00:33;94350.09;;;27.90;28.88
19783;BME280;10051;40.294;-3.754;2023-07-08T08:02:59;94345.44;;;27.87;28.44
19783;BME280;10051;40.294;-3.754;2023-07-08T08:05:25;94343.91;;;27.90;29.00
19783;BME280;10051;40.294;-3.754;2023-07-08T08:07:50;94365.53;;;28.04;29.21
19783;BME280;10051;40.294;-3.754;2023-07-08T08:10:16;94327.31;;;27.88;28.91
19783;BME280;10051;40.294;-3.754;2023-07-08T08:12:41;94348.91;;;28.02;28.93
19783;BME280;10051;40.294;-3.754;2023-07-08T08:15:07;94371.72;;;28.23;28.91
19783;BME280;10051;40.294;-3.754;2023-07-08T08:17:33;94368.63;;;28.32;28.44
19783;BME280;10051;40.294;-3.754;2023-07-08T08:19:59;94344.69;;;28.23;28.75
19783;BME280;10051;40.294;-3.754;2023-07-08T08:22:24;94370.91;;;28.52;28.54
19783;BME280;10051;40.294;-3.754;2023-07-08T08:24:50;94372.06;;;28.54;28.65
19783;BME280;10051;40.294;-3.754;2023-07-08T08:27:15;94368.19;;;28.59;28.33
19783;BME280;10051;40.294;-3.754;2023-07-08T08:29:41;94341.16;;;28.48;29.20
19783;BME280;10051;40.294;-3.754;2023-07-08T08:32:07;94364.66;;;28.73;29.24
19783;BME280;10051;40.294;-3.754;2023-07-08T08:34:33;94372.81;;;28.84;28.63
19783;BME280;10051;40.294;-3.754;2023-07-08T08:36:58;94350.38;;;28.72;27.88
19783;BME280;10051;40.294;-3.754;2023-07-08T08:39:24;94351.56;;;28.78;28.67
19783;BME280;10051;40.294;-3.754;2023-07-08T08:41:54;94372.31;;;29.03;28.45
19783;BME280;10051;40.294;-3.754;2023-07-08T08:44:28;94325.25;;;28.83;27.57
19783;BME280;10051;40.294;-3.754;2023-07-08T08:49:45;94367.94;;;29.35;27.10
19783;BME280;10051;40.294;-3.754;2023-07-08T08:52:14;94377.56;;;29.50;27.02
19783;BME280;10051;40.294;-3.754;2023-07-08T08:54:40;94350.94;;;29.31;25.07
19783;BME280;10051;40.294;-3.754;2023-07-08T08:57:16;94382.19;;;29.50;24.42
19783;BME280;10051;40.294;-3.754;2023-07-08T09:02:33;94389.88;;;29.59;24.19
19783;BME280;10051;40.294;-3.754;2023-07-08T09:05:05;94377.53;;;29.58;24.62
19783;BME280;10051;40.294;-3.754;2023-07-08T09:07:41;94394.09;;;29.71;23.96
19783;BME280;10051;40.294;-3.754;2023-07-08T09:10:19;94396.75;;;29.78;23.31
19783;BME280;10051;40.294;-3.754;2023-07-08T09:12:50;94392.13;;;29.75;23.63
19783;BME280;10051;40.294;-3.754;2023-07-08T09:15:18;94398.28;;;29.79;23.53
19783;BME280;10051;40.294;-3.754;2023-07-08T09:17:44;94356.19;;;29.60;23.74
19783;BME280;10051;40.294;-3.754;2023-07-08T09:20:21;94396.56;;;30.03;23.29
19783;BME280;10051;40.294;-3.754;2023-07-08T09:25:35;94394.13;;;30.20;22.83
19783;BME280;10051;40.294;-3.754;2023-07-08T09:28:04;94377.44;;;30.25;22.17
19783;BME280;10051;40.294;-3.754;2023-07-08T09:30:29;94401.72;;;30.39;22.35
19783;BME280;10051;40.294;-3.754;2023-07-08T09:33:02;94400.47;;;30.48;22.24
19783;BME280;10051;40.294;-3.754;2023-07-08T09:35:38;94365.72;;;30.35;22.15
19783;BME280;10051;40.294;-3.754;2023-07-08T09:38:09;94376.78;;;30.55;22.31
19783;BME280;10051;40.294;-3.754;2023-07-08T09:40:35;94351.38;;;30.35;22.92
19783;BME280;10051;40.294;-3.754;2023-07-08T09:43:27;94397.91;;;30.75;23.11
19783;BME280;10051;40.294;-3.754;2023-07-08T09:45:58;94361.22;;;30.63;22.30
19783;BME280;10051;40.294;-3.754;2023-07-08T09:48:27;94392.28;;;30.97;20.85
19783;BME280;10051;40.294;-3.754;2023-07-08T09:50:54;94384.94;;;30.94;20.90
19783;BME280;10051;40.294;-3.754;2023-07-08T09:53:21;94374.03;;;30.97;21.44
19783;BME280;10051;40.294;-3.754;2023-07-08T09:55:47;94403.97;;;31.25;20.82
19783;BME280;10051;40.294;-3.754;2023-07-08T09:58:25;94399.66;;;31.31;20.85
19783;BME280;10051;40.294;-3.754;2023-07-08T10:00:54;94404.56;;;31.40;20.58
19783;BME280;10051;40.294;-3.754;2023-07-08T10:03:32;94398.22;;;31.50;20.51
19783;BME280;10051;40.294;-3.754;2023-07-08T10:06:03;94404.34;;;31.58;20.26
19783;BME280;10051;40.294;-3.754;2023-07-08T10:08:43;94400.75;;;31.65;19.82
19783;BME280;10051;40.294;-3.754;2023-07-08T10:11:25;94389.53;;;31.63;19.52
19783;BME280;10051;40.294;-3.754;2023-07-08T10:13:53;94382.59;;;31.58;20.05
19783;BME280;10051;40.294;-3.754;2023-07-08T10:16:25;94400.94;;;31.81;19.77
19783;BME280;10051;40.294;-3.754;2023-07-08T10:18:52;94392.91;;;31.70;18.83
19783;BME280;10051;40.294;-3.754;2023-07-08T10:21:40;94405.31;;;31.75;19.44
19783;BME280;10051;40.294;-3.754;2023-07-08T10:27:06;94381.78;;;31.61;19.22
19783;BME280;10051;40.294;-3.754;2023-07-08T10:30:22;94403.97;;;31.87;18.88
19783;BME280;10051;40.294;-3.754;2023-07-08T10:33:11;94403.88;;;31.94;19.43
19783;BME280;10051;40.294;-3.754;2023-07-08T10:44:19;94398.97;;;32.09;18.63
19783;BME280;10051;40.294;-3.754;2023-07-08T10:47:02;94398.81;;;32.20;18.96
19783;BME280;10051;40.294;-3.754;2023-07-08T10:55:29;94396.44;;;32.46;18.12
19783;BME280;10051;40.294;-3.754;2023-07-08T11:06:00;94386.72;;;32.69;18.78
19783;BME280;10051;40.294;-3.754;2023-07-08T11:08:32;94395.47;;;32.80;18.24
19783;BME280;10051;40.294;-3.754;2023-07-08T11:11:12;94401.09;;;32.69;18.73
19783;BME280;10051;40.294;-3.754;2023-07-08T11:13:54;94387.91;;;32.68;18.25
19783;BME280;10051;40.294;-3.754;2023-07-08T11:16:49;94399.63;;;32.65;17.95
19783;BME280;10051;40.294;-3.754;2023-07-08T11:19:27;94368.56;;;32.42;18.96
19783;BME280;10051;40.294;-3.754;2023-07-08T11:22:00;94374.16;;;32.55;18.94
19783;BME280;10051;40.294;-3.754;2023-07-08T11:27:02;94373.66;;;32.40;18.99
19783;BME280;10051;40.294;-3.754;2023-07-08T11:32:00;94376.16;;;32.27;18.58
19783;BME280;10051;40.294;-3.754;2023-07-08T11:34:28;94366.28;;;32.13;18.78
19783;BME280;10051;40.294;-3.754;2023-07-08T11:36:55;94395.56;;;32.29;18.31
19783;BME280;10051;40.294;-3.754;2023-07-08T11:39:42;94386.84;;;32.14;18.88
19783;BME280;10051;40.294;-3.754;2023-07-08T11:42:43;94398.66;;;32.03;19.13
19783;BME280;10051;40.294;-3.754;2023-07-08T11:45:26;94405.88;;;32.14;18.16
19783;BME280;10051;40.294;-3.754;2023-07-08T11:47:53;94396.50;;;32.18;18.26
19783;BME280;10051;40.294;-3.754;2023-07-08T11:50:28;94391.28;;;32.31;18.38
19783;BME280;10051;40.294;-3.754;2023-07-08T11:55:55;94358.03;;;32.44;18.25
19783;BME280;10051;40.294;-3.754;2023-07-08T11:58:25;94375.38;;;32.74;17.96
19783;BME280;10051;40.294;-3.754;2023-07-08T12:03:41;94372.50;;;32.81;18.56
19783;BME280;10051;40.294;-3.754;2023-07-08T12:08:58;94380.28;;;33.03;18.21
19783;BME280;10051;40.294;-3.754;2023-07-08T12:11:32;94373.16;;;33.09;17.78
19783;BME280;10051;40.294;-3.754;2023-07-08T12:13:59;94370.31;;;33.16;17.60
19783;BME280;10051;40.294;-3.754;2023-07-08T12:16:29;94375.50;;;33.27;17.88
19783;BME280;10051;40.294;-3.754;2023-07-08T12:18:55;94364.91;;;33.33;17.75
19783;BME280;10051;40.294;-3.754;2023-07-08T12:21:23;94367.94;;;33.35;17.96
19783;BME280;10051;40.294;-3.754;2023-07-08T12:23:52;94369.81;;;33.42;18.23
19783;BME280;10051;40.294;-3.754;2023-07-08T12:26:17;94372.78;;;33.47;18.11
19783;BME280;10051;40.294;-3.754;2023-07-08T12:28:44;94371.75;;;33.41;18.34
19783;BME280;10051;40.294;-3.754;2023-07-08T12:31:18;94374.66;;;33.50;18.46
19783;BME280;10051;40.294;-3.754;2023-07-08T12:33:45;94376.41;;;33.61;18.49
19783;BME280;10051;40.294;-3.754;2023-07-08T12:36:19;94346.72;;;33.46;18.50
19783;BME280;10051;40.294;-3.754;2023-07-08T12:38:46;94381.25;;;33.70;18.46
19783;BME280;10051;40.294;-3.754;2023-07-08T12:41:17;94376.00;;;33.79;18.29
19783;BME280;10051;40.294;-3.754;2023-07-08T12:43:43;94355.28;;;33.65;17.70
19783;BME280;10051;40.294;-3.754;2023-07-08T12:46:14;94377.94;;;33.62;18.00
19783;BME280;10051;40.294;-3.754;2023-07-08T12:48:40;94365.81;;;33.46;18.41
19783;BME280;10051;40.294;-3.754;2023-07-08T12:51:11;94370.84;;;33.48;18.30
19783;BME280;10051;40.294;-3.754;2023-07-08T12:53:37;94369.88;;;33.38;18.25
19783;BME280;10051;40.294;-3.754;2023-07-08T12:56:04;94366.94;;;33.29;18.88
19783;BME280;10051;40.294;-3.754;2023-07-08T12:58:33;94343.66;;;33.24;19.04
19783;BME280;10051;40.294;-3.754;2023-07-08T13:01:01;94350.72;;;33.42;18.96
19783;BME280;10051;40.294;-3.754;2023-07-08T13:03:34;94341.97;;;33.50;18.58
19783;BME280;10051;40.294;-3.754;2023-07-08T13:06:02;94328.09;;;33.61;18.54
19783;BME280;10051;40.294;-3.754;2023-07-08T13:08:33;94340.66;;;33.75;18.44
19783;BME280;10051;40.294;-3.754;2023-07-08T13:11:02;94343.72;;;33.77;18.44
19783;BME280;10051;40.294;-3.754;2023-07-08T13:13:40;94343.19;;;33.83;17.84
19783;BME280;10051;40.294;-3.754;2023-07-08T13:16:09;94356.38;;;33.67;17.58
19783;BME280;10051;40.294;-3.754;2023-07-08T13:18:39;94342.97;;;33.40;17.97
19783;BME280;10051;40.294;-3.754;2023-07-08T13:21:07;94335.25;;;33.35;17.92
19783;BME280;10051;40.294;-3.754;2023-07-08T13:23:34;94340.19;;;33.24;19.34
19783;BME280;10051;40.294;-3.754;2023-07-08T13:26:00;94343.25;;;33.46;19.37
19783;BME280;10051;40.294;-3.754;2023-07-08T13:28:38;94324.72;;;33.37;19.03
19783;BME280;10051;40.294;-3.754;2023-07-08T13:31:16;94336.03;;;33.56;19.48
19783;BME280;10051;40.294;-3.754;2023-07-08T13:33:47;94304.97;;;33.33;19.01
19783;BME280;10051;40.294;-3.754;2023-07-08T13:36:16;94336.75;;;33.40;18.83
19783;BME280;10051;40.294;-3.754;2023-07-08T13:38:43;94288.97;;;32.98;19.20
19783;BME280;10051;40.294;-3.754;2023-07-08T13:41:09;94329.56;;;33.29;19.24
19783;BME280;10051;40.294;-3.754;2023-07-08T13:43:39;94340.88;;;33.28;19.06
19783;BME280;10051;40.294;-3.754;2023-07-08T13:46:24;94339.53;;;33.36;18.93
19783;BME280;10051;40.294;-3.754;2023-07-08T13:48:51;94328.22;;;33.37;19.33